createdAt,value
2023-02-01T00:00:53.492Z,102370.69
2023-02-01T00:03:20.500Z,102374.38
2023-02-01T00:05:59.716Z,102360.41
2023-02-01T00:08:27.477Z,102377.25
2023-02-01T00:11:10.939Z,102362.38
2023-02-01T00:13:39.895Z,102365.97
2023-02-01T00:16:17.560Z,102372.97
2023-02-01T00:18:45.783Z,102360.59
2023-02-01T00:21:14.185Z,102366.94
2023-02-01T00:23:41.758Z,102374.03
2023-02-01T00:26:15.135Z,102364.31
2023-02-01T00:28:42.601Z,102363.53
2023-02-01T00:31:09.586Z,102358.31
2023-02-01T00:33:36.605Z,102362.81
2023-02-01T00:36:08.492Z,102371.66
2023-02-01T00:38:38.446Z,102362.06
2023-02-01T00:41:13.437Z,102350.50
2023-02-01T00:43:40.875Z,102366.53
2023-02-01T00:46:08.260Z,102370.22
2023-02-01T00:48:35.752Z,102365.00
2023-02-01T00:51:04.876Z,102360.63
2023-02-01T00:53:32.270Z,102361.66
2023-02-01T00:55:59.709Z,102361.66
2023-02-01T00:58:27.748Z,102361.75
2023-02-01T01:01:14.869Z,102369.81
2023-02-01T01:03:44.727Z,102358.47
2023-02-01T01:06:14.222Z,102362.91
2023-02-01T01:08:42.102Z,102357.72
2023-02-01T01:11:16.015Z,102359.59
2023-02-01T01:13:43.778Z,102361.44
2023-02-01T01:16:12.080Z,102355.25
2023-02-01T01:18:40.807Z,102371.28
2023-02-01T01:21:08.948Z,102366.94
2023-02-01T01:23:37.348Z,102361.69
2023-02-01T01:26:18.790Z,102372.38
2023-02-01T01:28:46.677Z,102368.09
2023-02-01T01:31:16.107Z,102380.63
2023-02-01T01:33:44.989Z,102374.56
2023-02-01T01:36:13.328Z,102382.56
2023-02-01T01:38:41.713Z,102379.09
2023-02-01T01:41:12.985Z,102373.88
2023-02-01T01:43:57.539Z,102381.94
2023-02-01T01:46:32.429Z,102381.19
2023-02-01T01:49:08.320Z,102377.72
2023-02-01T01:51:40.372Z,102375.44
2023-02-01T01:54:18.396Z,102383.50
2023-02-01T01:56:50.166Z,102390.63
2023-02-01T01:59:17.812Z,102386.31
2023-02-01T02:01:45.310Z,102381.19
2023-02-01T02:04:12.535Z,102375.16
2023-02-01T02:07:03.322Z,102378.91
2023-02-01T02:09:33.628Z,102378.06
2023-02-01T02:12:00.631Z,102375.59
2023-02-01T02:14:31.146Z,102373.88
2023-02-01T02:17:16.830Z,102377.59
2023-02-01T02:20:10.767Z,102368.91
2023-02-01T02:23:13.179Z,102381.56
2023-02-01T02:26:21.204Z,102372.13
2023-02-01T02:28:51.868Z,102371.47
2023-02-01T02:31:36.110Z,102372.59
2023-02-01T02:34:40.036Z,102368.50
2023-02-01T02:37:19.374Z,102358.97
2023-02-01T02:39:58.486Z,102366.91
2023-02-01T02:42:58.188Z,102365.31
2023-02-01T02:46:02.032Z,102363.66
2023-02-01T02:48:55.454Z,102361.16
2023-02-01T02:51:48.051Z,102361.16
2023-02-01T02:54:39.025Z,102361.34
2023-02-01T02:57:37.724Z,102364.13
2023-02-01T03:00:28.234Z,102371.16
2023-02-01T03:03:14.297Z,102364.22
2023-02-01T03:05:45.741Z,102370.41
2023-02-01T03:08:26.673Z,102362.47
2023-02-01T03:11:16.533Z,102367.75
2023-02-01T03:13:56.198Z,102373.94
2023-02-01T03:16:33.117Z,102366.97
2023-02-01T03:19:13.239Z,102374.81
2023-02-01T03:21:51.309Z,102379.22
2023-02-01T03:24:21.806Z,102381.88
2023-02-01T03:27:01.720Z,102369.56
2023-02-01T03:29:38.456Z,102374.81
2023-02-01T03:32:06.224Z,102376.50
2023-02-01T03:34:33.774Z,102373.81
2023-02-01T03:37:06.002Z,102373.03
2023-02-01T03:39:43.567Z,102375.59
2023-02-01T03:42:27.014Z,102376.59
2023-02-01T03:45:11.348Z,102388.03
2023-02-01T03:47:46.445Z,102383.63
2023-02-01T03:50:17.821Z,102380.09
2023-02-01T03:53:08.971Z,102378.34
2023-02-01T03:55:37.682Z,102390.50
2023-02-01T03:58:19.519Z,102385.19
2023-02-01T04:00:58.337Z,102386.03
2023-02-01T04:03:26.646Z,102385.97
2023-02-01T04:05:54.751Z,102393.91
2023-02-01T04:08:25.790Z,102401.84
2023-02-01T04:10:52.772Z,102387.69
2023-02-01T04:13:19.737Z,102397.31
2023-02-01T04:15:50.872Z,102400.03
2023-02-01T04:18:17.973Z,102400.00
2023-02-01T04:20:45.479Z,102402.59
2023-02-01T04:23:12.511Z,102415.91
2023-02-01T04:25:39.505Z,102413.38
2023-02-01T04:28:07.988Z,102416.03
2023-02-01T04:30:35.582Z,102407.34
2023-02-01T04:33:04.761Z,102410.88
2023-02-01T04:35:31.709Z,102412.69
2023-02-01T04:37:58.993Z,102417.97
2023-02-01T04:40:26.102Z,102416.25
2023-02-01T04:42:53.053Z,102411.94
2023-02-01T04:45:20.065Z,102413.75
2023-02-01T04:47:47.090Z,102409.44
2023-02-01T04:50:14.116Z,102410.34
2023-02-01T04:52:41.687Z,102400.63
2023-02-01T04:55:09.114Z,102405.00
2023-02-01T04:57:36.023Z,102404.09
2023-02-01T05:00:03.777Z,102407.56
2023-02-01T05:02:30.727Z,102406.59
2023-02-01T05:04:57.716Z,102404.78
2023-02-01T05:07:24.931Z,102402.94
2023-02-01T05:09:52.226Z,102413.41
2023-02-01T05:12:37.651Z,102414.28
2023-02-01T05:15:05.272Z,102412.53
2023-02-01T05:17:32.197Z,102408.09
2023-02-01T05:19:59.115Z,102415.91
2023-02-01T05:22:26.088Z,102415.88
2023-02-01T05:24:53.027Z,102421.16
2023-02-01T05:27:19.928Z,102428.22
2023-02-01T05:29:46.841Z,102426.47
2023-02-01T05:32:22.080Z,102425.75
2023-02-01T05:34:50.280Z,102427.59
2023-02-01T05:37:17.266Z,102429.41
2023-02-01T05:39:44.197Z,102424.31
2023-02-01T05:42:11.182Z,102424.41
2023-02-01T05:44:38.224Z,102423.56
2023-02-01T05:47:05.516Z,102437.72
2023-02-01T05:49:32.418Z,102435.19
2023-02-01T05:52:00.483Z,102428.25
2023-02-01T05:54:28.074Z,102423.88
2023-02-01T05:56:55.065Z,102423.09
2023-02-01T05:59:22.084Z,102426.69
2023-02-01T06:01:49.192Z,102430.25
2023-02-01T06:04:16.155Z,102426.75
2023-02-01T06:06:43.126Z,102432.13
2023-02-01T06:09:11.590Z,102439.25
2023-02-01T06:11:38.606Z,102441.03
2023-02-01T06:14:05.666Z,102434.94
2023-02-01T06:16:32.808Z,102442.06
2023-02-01T06:18:59.894Z,102449.16
2023-02-01T06:21:26.921Z,102447.44
2023-02-01T06:23:55.127Z,102444.78
2023-02-01T06:26:22.690Z,102449.25
2023-02-01T06:28:50.413Z,102451.00
2023-02-01T06:31:17.369Z,102453.81
2023-02-01T06:33:44.563Z,102452.06
2023-02-01T06:36:17.049Z,102455.56
2023-02-01T06:38:44.023Z,102455.56
2023-02-01T06:41:12.148Z,102452.03
2023-02-01T06:43:39.575Z,102444.09
2023-02-01T06:46:09.474Z,102455.56
2023-02-01T06:48:36.621Z,102453.66
2023-02-01T06:51:04.000Z,102443.75
2023-02-01T06:57:01.749Z,102449.72
2023-02-01T06:59:28.928Z,102458.47
2023-02-01T07:01:55.983Z,102457.53
2023-02-01T07:04:23.236Z,102456.53
2023-02-01T07:06:50.192Z,102458.25
2023-02-01T07:09:17.244Z,102471.19
2023-02-01T07:11:45.176Z,102473.53
2023-02-01T07:14:12.481Z,102473.31
2023-02-01T07:16:39.537Z,102473.19
2023-02-01T07:19:06.487Z,102479.69
2023-02-01T07:21:33.422Z,102484.16
2023-02-01T07:24:00.974Z,102483.28
2023-02-01T07:26:27.979Z,102485.84
2023-02-01T07:28:57.333Z,102489.97
2023-02-01T07:31:26.430Z,102490.53
2023-02-01T07:33:53.384Z,102488.28
2023-02-01T07:36:20.444Z,102492.78
2023-02-01T07:38:48.803Z,102492.88
2023-02-01T07:41:16.689Z,102496.34
2023-02-01T07:43:43.678Z,102490.66
2023-02-01T07:46:11.491Z,102487.28
2023-02-01T07:48:38.830Z,102492.09
2023-02-01T07:51:09.579Z,102492.03
2023-02-01T07:53:37.552Z,102487.53
2023-02-01T07:56:05.426Z,102487.19
2023-02-01T07:58:32.427Z,102495.13
2023-02-01T08:01:17.773Z,102499.34
2023-02-01T08:03:44.776Z,102496.69
2023-02-01T08:06:11.738Z,102498.97
2023-02-01T08:08:39.099Z,102504.78
2023-02-01T08:11:08.025Z,102520.22
2023-02-01T08:13:36.417Z,102505.34
2023-02-01T08:16:06.363Z,102507.44
2023-02-01T08:18:34.360Z,102511.00
2023-02-01T08:21:05.530Z,102517.50
2023-02-01T08:23:32.480Z,102516.63
2023-02-01T08:26:14.596Z,102528.81
2023-02-01T08:28:44.749Z,102527.84
2023-02-01T08:31:15.964Z,102522.25
2023-02-01T08:33:44.360Z,102530.78
2023-02-01T08:36:12.541Z,102529.81
2023-02-01T08:38:40.909Z,102531.06
2023-02-01T08:41:13.502Z,102540.69
2023-02-01T08:43:42.169Z,102536.06
2023-02-01T08:46:10.626Z,102529.41
2023-02-01T08:48:38.353Z,102526.50
2023-02-01T08:51:07.445Z,102532.09
2023-02-01T08:53:34.366Z,102535.59
2023-02-01T08:56:01.931Z,102537.44
2023-02-01T08:58:29.029Z,102539.16
2023-02-01T09:00:56.578Z,102536.78
2023-02-01T09:03:23.661Z,102544.91
2023-02-01T09:05:51.416Z,102545.84
2023-02-01T09:08:21.241Z,102548.97
2023-02-01T09:10:48.266Z,102554.00
2023-02-01T09:13:15.283Z,102545.25
2023-02-01T09:15:42.124Z,102559.81
2023-02-01T09:18:09.087Z,102554.00
2023-02-01T09:20:37.848Z,102551.91
2023-02-01T09:23:04.792Z,102554.34
2023-02-01T09:25:31.672Z,102553.00
2023-02-01T09:27:58.609Z,102553.19
2023-02-01T09:30:25.908Z,102554.53
2023-02-01T09:32:53.023Z,102549.53
2023-02-01T09:35:19.922Z,102563.91
2023-02-01T09:37:46.811Z,102556.31
2023-02-01T09:40:18.199Z,102560.13
2023-02-01T09:43:18.199Z,102559.09
2023-02-01T09:45:54.264Z,102554.69
2023-02-01T09:48:26.402Z,102564.38
2023-02-01T09:50:59.008Z,102565.44
2023-02-01T09:53:29.305Z,102563.28
2023-02-01T09:56:04.133Z,102563.69
2023-02-01T09:58:42.315Z,102567.91
2023-02-01T10:01:35.880Z,102574.69
2023-02-01T10:04:15.282Z,102583.63
2023-02-01T10:06:49.125Z,102584.75
2023-02-01T10:09:25.060Z,102580.97
2023-02-01T10:11:58.016Z,102590.66
2023-02-01T10:14:24.894Z,102587.53
2023-02-01T10:17:33.160Z,102584.88
2023-02-01T10:20:08.643Z,102585.75
2023-02-01T10:23:23.055Z,102587.13
2023-02-01T10:25:55.142Z,102580.81
2023-02-01T10:28:24.206Z,102577.38
2023-02-01T10:30:56.119Z,102585.09
2023-02-01T10:33:33.524Z,102590.25
2023-02-01T10:36:12.051Z,102590.81
2023-02-01T10:38:39.043Z,102589.16
2023-02-01T10:41:15.459Z,102591.31
2023-02-01T10:43:43.790Z,102595.75
2023-02-01T10:46:11.563Z,102597.28
2023-02-01T10:48:39.673Z,102596.00
2023-02-01T10:51:24.282Z,102589.22
2023-02-01T10:54:03.039Z,102583.66
2023-02-01T10:56:31.020Z,102581.28
2023-02-01T10:59:07.509Z,102583.44
2023-02-01T11:01:48.853Z,102585.81
2023-02-01T11:04:21.473Z,102573.22
2023-02-01T11:06:55.972Z,102576.25
2023-02-01T11:09:25.692Z,102569.88
2023-02-01T11:11:52.545Z,102550.09
2023-02-01T11:14:21.792Z,102550.47
2023-02-01T11:16:56.255Z,102547.50
2023-02-01T11:19:23.112Z,102544.34
2023-02-01T11:21:54.752Z,102546.25
2023-02-01T11:24:32.792Z,102533.28
2023-02-01T11:27:05.772Z,102525.72
2023-02-01T11:29:39.308Z,102524.84
2023-02-01T11:32:06.686Z,102524.16
2023-02-01T11:34:45.223Z,102519.59
2023-02-01T11:37:23.026Z,102519.09
2023-02-01T11:39:59.671Z,102517.44
2023-02-01T11:42:28.611Z,102513.88
2023-02-01T11:45:22.108Z,102499.94
2023-02-01T11:47:53.939Z,102491.34
2023-02-01T11:50:35.937Z,102486.41
2023-02-01T11:53:27.667Z,102479.34
2023-02-01T11:56:13.120Z,102464.19
2023-02-01T11:59:07.464Z,102450.53
2023-02-01T12:01:43.822Z,102449.19
2023-02-01T12:04:55.116Z,102445.00
2023-02-01T12:07:57.527Z,102440.09
2023-02-01T12:11:00.710Z,102431.66
2023-02-01T12:13:39.626Z,102418.41
2023-02-01T12:16:36.464Z,102413.91
2023-02-01T12:19:12.321Z,102410.44
2023-02-01T12:22:14.660Z,102398.44
2023-02-01T12:24:56.064Z,102380.75
2023-02-01T12:27:42.523Z,102360.72
2023-02-01T12:30:51.980Z,102350.16
2023-02-01T12:33:38.773Z,102344.78
2023-02-01T12:36:22.901Z,102345.13
2023-02-01T12:38:56.965Z,102351.59
2023-02-01T12:41:51.599Z,102345.84
2023-02-01T12:44:34.084Z,102335.53
2023-02-01T12:47:13.884Z,102333.97
2023-02-01T12:50:02.485Z,102329.72
2023-02-01T12:52:38.873Z,102327.94
2023-02-01T12:55:21.716Z,102323.97
2023-02-01T12:57:56.859Z,102328.16
2023-02-01T13:00:37.494Z,102316.63
2023-02-01T13:03:29.451Z,102298.03
2023-02-01T13:06:10.206Z,102297.44
2023-02-01T13:08:49.228Z,102307.06
2023-02-01T13:11:26.208Z,102315.38
2023-02-01T13:13:56.175Z,102315.84
2023-02-01T13:16:54.538Z,102316.91
2023-02-01T13:19:51.736Z,102312.63
2023-02-01T13:22:31.905Z,102310.84
2023-02-01T13:25:03.409Z,102311.78
2023-02-01T13:27:32.302Z,102296.81
2023-02-01T13:30:06.698Z,102301.63
2023-02-01T13:33:53.813Z,102301.56
2023-02-01T13:36:40.678Z,102307.19
2023-02-01T13:39:20.941Z,102311.63
2023-02-01T13:41:56.078Z,102298.41
2023-02-01T13:44:33.256Z,102310.22
2023-02-01T13:47:04.066Z,102306.53
2023-02-01T13:49:38.417Z,102310.06
2023-02-01T13:52:06.465Z,102308.22
2023-02-01T13:54:38.682Z,102314.63
2023-02-01T13:57:28.462Z,102301.59
2023-02-01T14:00:08.351Z,102311.69
2023-02-01T14:02:41.500Z,102308.22
2023-02-01T14:05:13.961Z,102315.34
2023-02-01T14:08:08.877Z,102315.84
2023-02-01T14:10:59.393Z,102320.72
2023-02-01T14:13:38.484Z,102307.72
2023-02-01T14:16:05.632Z,102310.31
2023-02-01T14:18:38.966Z,102312.88
2023-02-01T14:21:22.250Z,102318.03
2023-02-01T14:24:04.143Z,102308.22
2023-02-01T14:26:49.227Z,102304.28
2023-02-01T14:29:23.567Z,102308.31
2023-02-01T14:32:19.247Z,102307.34
2023-02-01T14:35:00.517Z,102311.78
2023-02-01T14:37:33.812Z,102303.72
2023-02-01T14:40:24.011Z,102309.59
2023-02-01T14:42:54.980Z,102316.47
2023-02-01T14:45:23.535Z,102321.16
2023-02-01T14:48:14.175Z,102321.75
2023-02-01T14:50:47.395Z,102319.16
2023-02-01T14:53:14.321Z,102317.69
2023-02-01T14:55:47.890Z,102322.63
2023-02-01T14:58:47.361Z,102329.00
2023-02-01T15:01:32.064Z,102322.19
2023-02-01T15:04:04.961Z,102331.03
2023-02-01T15:06:52.569Z,102329.16
2023-02-01T15:09:31.628Z,102332.50
2023-02-01T15:12:13.711Z,102345.69
2023-02-01T15:14:52.555Z,102338.22
2023-02-01T15:17:27.995Z,102332.69
2023-02-01T15:20:04.856Z,102345.13
2023-02-01T15:22:35.956Z,102352.41
2023-02-01T15:25:04.281Z,102351.09
2023-02-01T15:27:33.257Z,102351.19
2023-02-01T15:30:08.794Z,102357.31
2023-02-01T15:32:41.552Z,102353.31
2023-02-01T15:35:37.366Z,102355.34
2023-02-01T15:38:25.739Z,102345.56
2023-02-01T15:41:22.113Z,102359.78
2023-02-01T15:43:54.971Z,102361.03
2023-02-01T15:46:39.416Z,102363.38
2023-02-01T15:49:21.938Z,102362.06
2023-02-01T15:51:49.949Z,102369.81
2023-02-01T15:54:21.275Z,102365.16
2023-02-01T15:56:54.353Z,102366.69
2023-02-01T15:59:25.884Z,102366.31
2023-02-01T16:01:52.837Z,102360.09
2023-02-01T16:04:22.022Z,102360.97
2023-02-01T16:06:52.184Z,102359.88
2023-02-01T16:09:22.592Z,102357.41
2023-02-01T16:11:57.507Z,102360.97
2023-02-01T16:14:25.722Z,102359.22
2023-02-01T16:16:55.266Z,102367.44
2023-02-01T16:19:24.418Z,102367.25
2023-02-01T16:21:51.405Z,102370.31
2023-02-01T16:24:18.283Z,102378.34
2023-02-01T16:26:45.261Z,102378.34
2023-02-01T16:29:12.368Z,102368.78
2023-02-01T16:31:40.797Z,102366.84
2023-02-01T16:34:12.005Z,102360.91
2023-02-01T16:36:39.986Z,102363.78
2023-02-01T16:39:12.182Z,102363.00
2023-02-01T16:41:40.453Z,102366.81
2023-02-01T16:44:08.033Z,102356.09
2023-02-01T16:46:40.463Z,102375.84
2023-02-01T16:49:16.326Z,102376.94
2023-02-01T16:51:43.582Z,102370.84
2023-02-01T16:54:11.572Z,102373.69
2023-02-01T16:56:42.482Z,102385.94
2023-02-01T16:59:09.801Z,102388.53
2023-02-01T17:01:38.674Z,102382.34
2023-02-01T17:04:05.743Z,102379.66
2023-02-01T17:06:34.268Z,102383.53
2023-02-01T17:09:03.331Z,102389.06
2023-02-01T17:11:33.446Z,102389.25
2023-02-01T17:14:20.842Z,102392.19
2023-02-01T17:16:50.289Z,102389.72
2023-02-01T17:19:24.660Z,102395.16
2023-02-01T17:21:56.841Z,102403.50
2023-02-01T17:24:35.767Z,102402.19
2023-02-01T17:27:06.333Z,102403.06
2023-02-01T17:29:33.916Z,102404.97
2023-02-01T17:32:01.461Z,102406.88
2023-02-01T17:34:28.855Z,102410.50
2023-02-01T17:36:56.358Z,102403.59
2023-02-01T17:39:41.922Z,102414.63
2023-02-01T17:42:12.601Z,102419.63
2023-02-01T17:44:39.605Z,102418.34
2023-02-01T17:47:06.613Z,102424.63
2023-02-01T17:49:35.992Z,102426.69
2023-02-01T17:52:03.070Z,102424.44
2023-02-01T17:54:30.212Z,102432.38
2023-02-01T17:57:00.469Z,102428.06
2023-02-01T17:59:27.893Z,102431.50
2023-02-01T18:02:00.809Z,102433.53
2023-02-01T18:04:28.431Z,102428.03
2023-02-01T18:06:55.607Z,102433.53
2023-02-01T18:09:23.086Z,102437.34
2023-02-01T18:11:50.946Z,102428.34
2023-02-01T18:14:18.230Z,102433.53
2023-02-01T18:16:45.284Z,102435.59
2023-02-01T18:19:12.387Z,102439.38
2023-02-01T18:21:42.682Z,102433.00
2023-02-01T18:24:13.455Z,102435.75
2023-02-01T18:26:41.013Z,102441.19
2023-02-01T18:29:08.095Z,102437.66
2023-02-01T18:31:41.182Z,102434.19
2023-02-01T18:34:10.734Z,102443.19
2023-02-01T18:36:37.602Z,102432.63
2023-02-01T18:39:04.698Z,102436.22
2023-02-01T18:41:31.704Z,102425.72
2023-02-01T18:43:58.608Z,102425.72
2023-02-01T18:46:26.413Z,102420.34
2023-02-01T18:48:55.279Z,102424.06
2023-02-01T18:51:23.633Z,102426.03
2023-02-01T18:53:51.774Z,102423.75
2023-02-01T18:56:19.125Z,102421.00
2023-02-01T18:58:46.593Z,102419.09
2023-02-01T19:01:16.480Z,102419.28
2023-02-01T19:03:45.791Z,102417.63
2023-02-01T19:06:17.015Z,102419.41
2023-02-01T19:08:48.112Z,102424.25
2023-02-01T19:11:15.455Z,102420.22
2023-02-01T19:13:42.747Z,102424.34
2023-02-01T19:16:17.829Z,102417.50
2023-02-01T19:18:45.204Z,102414.44
2023-02-01T19:21:13.991Z,102420.19
2023-02-01T19:23:44.248Z,102430.28
2023-02-01T19:26:12.941Z,102426.91
2023-02-01T19:28:40.474Z,102415.81
2023-02-01T19:31:10.573Z,102418.84
2023-02-01T19:33:39.686Z,102420.81
2023-02-01T19:36:09.524Z,102424.56
2023-02-01T19:38:37.227Z,102427.63
2023-02-01T19:41:04.310Z,102422.56
2023-02-01T19:43:32.749Z,102422.56
2023-02-01T19:46:01.171Z,102429.06
2023-02-01T19:48:31.151Z,102432.81
2023-02-01T19:50:59.367Z,102427.63
2023-02-01T19:53:28.036Z,102431.31
2023-02-01T19:55:57.867Z,102428.84
2023-02-01T19:58:25.900Z,102436.00
2023-02-01T20:00:54.334Z,102436.91
2023-02-01T20:03:22.248Z,102438.66
2023-02-01T20:05:56.798Z,102441.47
2023-02-01T20:08:24.436Z,102437.06
2023-02-01T20:10:51.672Z,102444.06
2023-02-01T20:13:18.909Z,102440.63
2023-02-01T20:15:46.173Z,102445.09
2023-02-01T20:21:00.652Z,102447.25
2023-02-01T20:22:37.562Z,102450.13
2023-02-01T20:25:04.912Z,102458.19
2023-02-01T20:27:32.720Z,102452.16
2023-02-01T20:29:59.649Z,102452.97
2023-02-01T20:32:26.877Z,102448.50
2023-02-01T20:34:56.174Z,102454.06
2023-02-01T20:37:43.645Z,102446.94
2023-02-01T20:40:12.114Z,102442.47
2023-02-01T20:42:39.177Z,102447.13
2023-02-01T20:45:06.615Z,102453.41
2023-02-01T20:47:33.736Z,102454.28
2023-02-01T20:50:04.248Z,102446.22
2023-02-01T20:52:33.610Z,102444.47
2023-02-01T20:55:00.729Z,102448.88
2023-02-01T20:57:28.080Z,102448.22
2023-02-01T20:59:55.051Z,102447.19
2023-02-01T21:02:22.240Z,102442.88
2023-02-01T21:04:49.225Z,102445.66
2023-02-01T21:07:16.146Z,102435.97
2023-02-01T21:09:43.471Z,102440.44
2023-02-01T21:12:11.132Z,102443.13
2023-02-01T21:14:38.242Z,102448.59
2023-02-01T21:17:05.437Z,102452.19
2023-02-01T21:19:43.531Z,102447.94
2023-02-01T21:22:12.273Z,102458.75
2023-02-01T21:24:41.225Z,102449.94
2023-02-01T21:27:09.658Z,102452.75
2023-02-01T21:29:36.576Z,102450.41
2023-02-01T21:32:05.025Z,102442.63
2023-02-01T21:34:31.929Z,102450.75
2023-02-01T21:36:58.864Z,102454.59
2023-02-01T21:39:28.682Z,102459.00
2023-02-01T21:42:15.027Z,102461.72
2023-02-01T21:44:42.552Z,102471.66
2023-02-01T21:47:11.085Z,102469.94
2023-02-01T21:49:38.609Z,102469.81
2023-02-01T21:52:11.851Z,102475.25
2023-02-01T21:54:39.467Z,102467.34
2023-02-01T21:57:12.100Z,102473.66
2023-02-01T21:59:44.104Z,102472.78
2023-02-01T22:02:16.320Z,102469.41
2023-02-01T22:04:44.395Z,102473.00
2023-02-01T22:07:12.042Z,102473.06
2023-02-01T22:09:39.216Z,102474.06
2023-02-01T22:12:06.309Z,102478.59
2023-02-01T22:14:33.592Z,102477.78
2023-02-01T22:17:00.841Z,102474.31
2023-02-01T22:19:27.909Z,102478.84
2023-02-01T22:21:55.513Z,102488.63
2023-02-01T22:24:22.787Z,102481.75
2023-02-01T22:26:51.265Z,102493.41
2023-02-01T22:29:24.133Z,102497.97
2023-02-01T22:31:51.206Z,102495.47
2023-02-01T22:34:18.542Z,102498.13
2023-02-01T22:36:49.127Z,102501.84
2023-02-01T22:39:16.290Z,102502.91
2023-02-01T22:41:44.946Z,102501.34
2023-02-01T22:44:12.105Z,102512.88
2023-02-01T22:46:40.217Z,102505.81
2023-02-01T22:49:07.233Z,102506.03
2023-02-01T22:51:34.219Z,102516.81
2023-02-01T22:54:01.634Z,102508.00
2023-02-01T22:56:37.640Z,102504.66
2023-02-01T22:59:10.817Z,102499.53
2023-02-01T23:01:37.935Z,102494.75
2023-02-01T23:04:07.023Z,102502.91
2023-02-01T23:06:34.877Z,102501.31
2023-02-01T23:09:06.299Z,102496.94
2023-02-01T23:11:33.233Z,102490.94
2023-02-01T23:14:00.171Z,102488.53
2023-02-01T23:16:27.123Z,102476.97
2023-02-01T23:18:57.724Z,102484.94
2023-02-01T23:21:31.068Z,102488.72
2023-02-01T23:24:01.257Z,102481.78
2023-02-01T23:26:59.428Z,102482.56
2023-02-01T23:29:55.602Z,102488.06
2023-02-01T23:32:22.588Z,102480.03
2023-02-01T23:35:14.956Z,102476.13
2023-02-01T23:38:17.613Z,102479.53
2023-02-01T23:40:44.565Z,102478.66
2023-02-01T23:43:30.239Z,102478.47
2023-02-01T23:46:03.359Z,102473.31
2023-02-01T23:49:08.155Z,102473.22
2023-02-01T23:51:40.990Z,102477.69
2023-02-01T23:54:10.165Z,102475.06
2023-02-01T23:56:40.372Z,102467.22
2023-02-01T23:59:16.011Z,102464.56
